Time;durP1;ratioP1;P1;durP2;ratioP2;P2;SDS_P1;SDS_P2;PMS_P1;PMS_P2;Temp;Humidity;BMP_temperature;BMP_pressure;BME280_temperature;BME280_humidity;BME280_pressure;Samples;Min_cycle;Max_cycle;Signal;HPM_P1;HPM_P2
2024/03/29 01:43:08;;;;;;;1.50;0.77;;;;;;;11.27;73.16;99498.69;5092615;28;20044;-58
2024/03/29 01:45:39;;;;;;;1.88;0.77;;;;;;;11.23;73.98;99523.09;5109240;28;20058;-60
2024/03/29 01:48:07;;;;;;;1.30;0.60;;;;;;;11.13;74.12;99522.91;5109696;28;20047;-59
2024/03/29 01:50:35;;;;;;;2.40;0.90;;;;;;;11.14;75.00;99519.28;5113124;28;20081;-60
2024/03/29 01:53:03;;;;;;;1.35;0.80;;;;;;;11.26;74.29;99534.38;5113215;28;20078;-59
2024/03/29 01:55:30;;;;;;;1.38;0.68;;;;;;;11.25;74.39;99535.34;5112897;28;20047;-60
2024/03/29 01:57:58;;;;;;;1.35;0.70;;;;;;;11.33;74.43;99538.31;5113008;28;20507;-59
2024/03/29 02:00:27;;;;;;;1.27;0.50;;;;;;;11.26;75.19;99550.41;5112284;28;20054;-58
2024/03/29 02:02:56;;;;;;;0.77;0.50;;;;;;;11.25;74.60;99543.34;5112633;28;20425;-60
2024/03/29 02:05:25;;;;;;;0.95;0.70;;;;;;;11.21;74.95;99552.56;5112854;28;20051;-60
2024/03/29 02:07:53;;;;;;;2.05;0.93;;;;;;;11.10;74.14;99563.19;5112745;28;20338;-59
2024/03/29 02:10:21;;;;;;;1.52;0.60;;;;;;;11.16;73.74;99565.38;5112614;28;20504;-59
2024/03/29 02:12:48;;;;;;;1.00;0.55;;;;;;;11.12;73.91;99580.78;5112417;28;20489;-59
2024/03/29 02:15:15;;;;;;;1.00;0.65;;;;;;;10.98;74.65;99578.25;5112234;28;20056;-59
2024/03/29 02:17:43;;;;;;;2.80;0.73;;;;;;;11.06;74.58;99596.38;5112595;28;20054;-59
2024/03/29 02:20:12;;;;;;;1.20;0.52;;;;;;;10.94;74.94;99613.28;5112311;28;20484;-58
2024/03/29 02:22:45;;;;;;;1.38;0.63;;;;;;;10.92;74.71;99620.56;5112340;28;20043;-61
2024/03/29 02:25:14;;;;;;;0.88;0.47;;;;;;;10.90;74.62;99633.97;5112248;28;20526;-60
2024/03/29 02:27:41;;;;;;;1.42;0.65;;;;;;;10.92;74.58;99640.09;5112981;28;20121;-57
2024/03/29 02:30:09;;;;;;;0.70;0.52;;;;;;;10.93;74.38;99641.78;5112295;28;20051;-59
2024/03/29 02:32:36;;;;;;;0.43;0.40;;;;;;;10.92;74.24;99647.25;5112382;28;20094;-59
2024/03/29 02:35:04;;;;;;;0.88;0.50;;;;;;;10.94;73.81;99658.66;5112292;28;20473;-59
2024/03/29 02:37:31;;;;;;;1.27;0.52;;;;;;;10.82;74.78;99663.91;5112268;28;20044;-59
2024/03/29 02:39:58;;;;;;;0.88;0.60;;;;;;;10.91;74.51;99657.06;5111957;28;20056;-59
2024/03/29 02:42:27;;;;;;;0.68;0.50;;;;;;;10.81;74.48;99659.53;5112131;28;20050;-60
2024/03/29 02:44:55;;;;;;;1.10;0.60;;;;;;;10.78;74.51;99669.53;5111955;28;20086;-58
2024/03/29 02:47:23;;;;;;;0.88;0.40;;;;;;;10.70;74.99;99670.06;5112223;28;20059;-60
2024/03/29 02:49:49;;;;;;;1.10;0.60;;;;;;;10.75;75.19;99661.75;5112058;28;20043;-60
2024/03/29 02:52:16;;;;;;;0.60;0.40;;;;;;;10.81;74.84;99675.53;5112019;28;20043;-60
2024/03/29 02:54:42;;;;;;;0.77;0.52;;;;;;;10.76;74.30;99680.31;5112323;28;20083;-59
2024/03/29 02:57:10;;;;;;;1.35;0.60;;;;;;;10.79;74.66;99674.75;5111957;28;20040;-59
2024/03/29 02:59:39;;;;;;;1.17;0.70;;;;;;;10.86;73.96;99669.84;5111621;28;20047;-59
2024/03/29 03:02:07;;;;;;;0.88;0.50;;;;;;;10.83;74.27;99678.09;5111301;28;20048;-58
2024/03/29 03:04:33;;;;;;;0.68;0.52;;;;;;;10.75;74.25;99673.28;5111694;28;20082;-60
2024/03/29 03:10:55;;;;;;;1.05;0.60;;;;;;;10.83;73.51;99675.41;5111763;28;20537;-60
2024/03/29 03:12:32;;;;;;;0.75;0.40;;;;;;;10.91;73.13;99691.75;5111453;28;20137;-60
2024/03/29 03:15:01;;;;;;;2.10;0.60;;;;;;;10.87;73.53;99693.75;5111404;28;20483;-58
2024/03/29 03:17:29;;;;;;;1.63;0.57;;;;;;;10.87;73.87;99696.41;5111538;28;20044;-60
2024/03/29 03:19:55;;;;;;;1.33;0.70;;;;;;;10.87;73.73;99704.44;5111150;28;20115;-59
2024/03/29 03:22:22;;;;;;;1.40;0.60;;;;;;;10.89;73.59;99710.50;5111505;28;20055;-59
2024/03/29 03:24:49;;;;;;;4.40;1.17;;;;;;;10.88;73.53;99716.81;5111276;28;20124;-59
2024/03/29 03:27:16;;;;;;;3.63;0.90;;;;;;;10.82;73.39;99716.41;5111457;28;20050;-60
2024/03/29 03:29:43;;;;;;;2.03;0.75;;;;;;;10.81;73.34;99709.34;5111325;28;20105;-59
2024/03/29 03:32:11;;;;;;;2.10;0.50;;;;;;;10.94;72.41;99712.00;5111012;28;20120;-59
2024/03/29 03:34:38;;;;;;;1.60;0.70;;;;;;;10.94;72.12;99709.34;5110821;28;20055;-60
2024/03/29 03:37:04;;;;;;;1.38;0.60;;;;;;;10.88;71.96;99700.78;5111128;28;20055;-59
2024/03/29 03:39:32;;;;;;;1.75;0.60;;;;;;;10.90;71.30;99708.69;5111151;28;20119;-59
2024/03/29 03:41:58;;;;;;;1.55;0.70;;;;;;;10.83;71.08;99702.94;5110884;28;20194;-59
2024/03/29 03:44:25;;;;;;;1.00;0.57;;;;;;;10.86;70.77;99708.06;5110752;28;20103;-59
2024/03/29 03:46:51;;;;;;;0.70;0.43;;;;;;;10.82;70.72;99722.59;5110883;28;20035;-58
2024/03/29 03:49:20;;;;;;;1.42;0.38;;;;;;;10.81;70.90;99720.03;5110548;28;20047;-60
2024/03/29 03:51:46;;;;;;;0.90;0.40;;;;;;;10.68;70.84;99725.34;5111052;28;20736;-57
2024/03/29 03:54:13;;;;;;;0.70;0.50;;;;;;;10.83;71.03;99734.13;5110791;28;20370;-56
2024/03/29 03:56:40;;;;;;;1.35;0.70;;;;;;;10.79;70.95;99721.94;5110704;28;20046;-59
2024/03/29 03:59:07;;;;;;;1.70;0.60;;;;;;;10.84;70.72;99720.66;5110441;28;20061;-59
2024/03/29 04:01:34;;;;;;;1.88;0.70;;;;;;;10.86;69.98;99718.72;5110415;28;20123;-57
2024/03/29 04:04:01;;;;;;;4.20;0.82;;;;;;;10.91;69.98;99723.75;5110518;28;20114;-59
2024/03/29 04:06:29;;;;;;;1.25;0.30;;;;;;;10.86;70.02;99739.22;5110523;28;20127;-59
2024/03/29 04:08:55;;;;;;;1.42;0.55;;;;;;;10.82;70.08;99741.25;5110478;28;20048;-57
2024/03/29 04:11:23;;;;;;;1.05;0.60;;;;;;;10.81;70.70;99747.56;5110087;28;20473;-59
2024/03/29 04:13:49;;;;;;;2.05;0.73;;;;;;;10.76;70.75;99768.34;5109792;28;20044;-58
2024/03/29 04:16:16;;;;;;;1.65;0.70;;;;;;;10.65;71.60;99768.25;5110096;28;20055;-59
2024/03/29 04:18:42;;;;;;;1.35;0.70;;;;;;;10.81;71.22;99779.56;5110462;28;20416;-59
2024/03/29 04:21:09;;;;;;;1.92;1.00;;;;;;;10.58;71.69;99786.47;5110380;28;20047;-60
2024/03/29 04:23:38;;;;;;;3.10;1.50;;;;;;;10.70;71.47;99787.44;5110215;28;20101;-57
2024/03/29 04:26:05;;;;;;;2.42;1.30;;;;;;;10.73;71.58;99789.06;5110158;28;20112;-58
2024/03/29 04:28:31;;;;;;;6.80;3.65;;;;;;;10.57;72.47;99797.22;5110379;28;20563;-58
2024/03/29 04:31:00;;;;;;;7.25;3.72;;;;;;;10.59;72.63;99793.50;5109841;28;20076;-61
2024/03/29 04:33:27;;;;;;;7.90;4.00;;;;;;;10.66;72.36;99775.28;5110414;28;20343;-58
2024/03/29 04:35:56;;;;;;;8.27;4.00;;;;;;;10.67;72.31;99784.13;5110034;28;20077;-58
2024/03/29 04:38:24;;;;;;;6.20;3.10;;;;;;;10.64;72.83;99795.03;5110350;28;20047;-60
2024/03/29 04:40:54;;;;;;;4.75;2.67;;;;;;;10.56;73.40;99791.03;5109918;28;20481;-59
2024/03/29 04:43:24;;;;;;;4.45;2.10;;;;;;;10.58;73.68;99790.94;5109842;28;20071;-56
2024/03/29 04:46:02;;;;;;;4.95;1.80;;;;;;;10.60;73.56;99802.34;5109861;28;20122;-60
2024/03/29 04:48:29;;;;;;;2.85;1.42;;;;;;;10.47;74.48;99798.81;5109979;28;20077;-59
2024/03/29 04:50:56;;;;;;;2.60;1.48;;;;;;;10.50;74.76;99806.59;5109794;28;20048;-57
2024/03/29 04:53:24;;;;;;;2.80;1.40;;;;;;;10.51;74.83;99824.31;5109885;28;20139;-59
2024/03/29 04:55:56;;;;;;;2.45;1.00;;;;;;;10.57;74.61;99822.09;5109647;28;20052;-59
2024/03/29 04:58:24;;;;;;;4.32;1.27;;;;;;;10.67;73.81;99830.31;5109991;28;20101;-60
2024/03/29 05:00:52;;;;;;;2.30;1.27;;;;;;;10.60;74.38;99821.88;5109848;28;20051;-59
2024/03/29 05:03:19;;;;;;;2.15;1.10;;;;;;;10.49;75.02;99831.56;5109910;28;20044;-60
2024/03/29 05:05:47;;;;;;;3.03;1.30;;;;;;;10.50;74.94;99828.78;5109697;28;20433;-58
2024/03/29 05:08:14;;;;;;;2.35;1.20;;;;;;;10.47;75.15;99845.00;5109486;28;20139;-59
2024/03/29 05:10:42;;;;;;;1.88;1.10;;;;;;;10.37;76.29;99849.22;5109469;28;20044;-58
2024/03/29 05:13:11;;;;;;;2.88;1.20;;;;;;;10.63;75.17;99860.00;5109531;28;20130;-59
2024/03/29 05:15:38;;;;;;;4.25;1.50;;;;;;;10.55;75.37;99861.34;5109536;28;20052;-58
2024/03/29 05:18:06;;;;;;;3.88;1.33;;;;;;;10.54;76.14;99859.63;5109666;28;20106;-60
2024/03/29 05:20:33;;;;;;;4.45;1.70;;;;;;;10.65;75.85;99866.94;5109628;28;20040;-58
2024/03/29 05:23:01;;;;;;;2.30;1.40;;;;;;;10.77;75.19;99875.91;5109485;28;20040;-58
2024/03/29 05:25:28;;;;;;;4.18;1.75;;;;;;;10.85;74.99;99863.78;5113689;28;20047;-60
2024/03/29 05:27:55;;;;;;;3.30;1.45;;;;;;;10.86;75.16;99867.28;5113386;28;20130;-57
2024/03/29 05:30:24;;;;;;;3.15;1.73;;;;;;;10.43;76.99;99869.31;5113446;28;20127;-58
2024/03/29 05:32:52;;;;;;;3.97;1.80;;;;;;;10.45;77.86;99862.91;5113417;28;20048;-58
2024/03/29 05:35:19;;;;;;;2.83;1.70;;;;;;;10.26;79.45;99876.59;5113363;28;20469;-58
2024/03/29 05:37:51;;;;;;;3.60;1.80;;;;;;;10.51;78.87;99877.63;5113473;28;20047;-63
2024/03/29 05:40:18;;;;;;;3.78;1.95;;;;;;;10.55;78.74;99873.81;5113481;28;20098;-55
2024/03/29 05:42:45;;;;;;;3.42;2.05;;;;;;;10.73;78.06;99888.63;5113254;28;20054;-56
2024/03/29 05:45:26;;;;;;;4.88;2.22;;;;;;;10.78;77.59;99890.97;5113468;28;20067;-58
2024/03/29 05:47:55;;;;;;;4.15;1.90;;;;;;;10.94;77.32;99891.66;5113082;28;20051;-55
2024/03/29 05:50:23;;;;;;;3.17;1.52;;;;;;;11.06;76.76;99901.50;5112972;28;20056;-57
2024/03/29 05:52:51;;;;;;;3.22;1.60;;;;;;;11.02;76.75;99904.50;5113008;28;20519;-57
2024/03/29 05:55:19;;;;;;;3.60;1.83;;;;;;;10.96;77.16;99910.22;5113093;28;20047;-58
2024/03/29 05:57:48;;;;;;;3.50;1.83;;;;;;;11.14;77.18;99904.50;5112800;28;20660;-57
2024/03/29 06:00:16;;;;;;;3.20;1.80;;;;;;;11.23;76.62;99908.38;5113078;28;20059;-61
2024/03/29 06:02:47;;;;;;;3.05;1.65;;;;;;;11.42;75.53;99916.81;5112946;28;20054;-58
2024/03/29 06:05:15;;;;;;;3.78;1.90;;;;;;;11.51;75.61;99912.66;5113017;28;20097;-59
2024/03/29 06:07:42;;;;;;;4.93;1.80;;;;;;;11.31;76.14;99914.03;5112965;28;20423;-55
2024/03/29 06:10:10;;;;;;;3.17;1.50;;;;;;;11.06;77.60;99908.66;5112946;28;20142;-57
2024/03/29 06:12:38;;;;;;;5.60;1.52;;;;;;;11.33;76.71;99913.94;5113074;28;20051;-58
2024/03/29 06:17:53;;;;;;;3.47;1.90;;;;;;;11.71;75.98;99914.78;5112544;28;20055;-57
2024/03/29 06:20:21;;;;;;;3.72;1.80;;;;;;;11.35;77.79;99909.31;5112783;28;20044;-54
2024/03/29 06:22:48;;;;;;;3.78;2.00;;;;;;;11.67;77.13;99901.75;5112696;28;20040;-59
2024/03/29 06:25:15;;;;;;;4.93;1.90;;;;;;;11.89;76.12;99896.66;5112332;28;20141;-58
2024/03/29 06:27:47;;;;;;;5.22;2.30;;;;;;;11.64;78.55;99908.16;5112549;28;20481;-55
2024/03/29 06:30:16;;;;;;;5.32;2.38;;;;;;;11.72;78.54;99926.34;5112256;28;20462;-57
2024/03/29 06:32:45;;;;;;;4.30;2.10;;;;;;;11.94;77.33;99929.22;5112410;28;20044;-57
2024/03/29 06:35:13;;;;;;;5.03;2.10;;;;;;;11.79;78.31;99932.97;5111116;28;20052;-57
2024/03/29 06:37:42;;;;;;;6.30;2.65;;;;;;;12.15;77.08;99925.97;5112226;28;20456;-59
2024/03/29 06:40:10;;;;;;;3.50;2.00;;;;;;;12.45;75.74;99939.84;5112315;28;20043;-59
2024/03/29 06:42:38;;;;;;;3.95;2.10;;;;;;;12.43;75.41;99941.75;5112005;28;20047;-58
2024/03/29 06:45:06;;;;;;;3.80;1.98;;;;;;;12.47;74.77;99951.28;5112081;28;20442;-58
2024/03/29 06:47:34;;;;;;;3.85;2.00;;;;;;;12.35;74.96;99952.13;5111957;28;20040;-60
2024/03/29 06:50:01;;;;;;;3.77;1.90;;;;;;;12.27;75.48;99943.84;5118771;27;20044;-56
2024/03/29 06:52:30;;;;;;;4.82;1.90;;;;;;;12.13;76.23;99941.28;5132334;27;20668;-60
2024/03/29 06:54:57;;;;;;;4.32;1.85;;;;;;;12.39;76.55;99942.94;5132397;27;20047;-59
2024/03/29 06:57:25;;;;;;;3.40;1.55;;;;;;;12.24;75.97;99933.34;5132255;27;20046;-56
2024/03/29 06:59:53;;;;;;;3.20;1.63;;;;;;;12.20;75.97;99932.72;5132838;27;20057;-58
2024/03/29 07:02:20;;;;;;;4.97;2.20;;;;;;;12.21;75.61;99934.44;5133719;27;20039;-56
2024/03/29 07:04:48;;;;;;;4.13;2.15;;;;;;;12.63;74.72;99939.44;5133339;27;20050;-57
2024/03/29 07:07:15;;;;;;;3.40;1.77;;;;;;;13.08;72.60;99949.41;5132617;27;20094;-60
2024/03/29 07:09:44;;;;;;;5.05;1.65;;;;;;;13.07;72.05;99945.03;5131683;27;20588;-57
2024/03/29 07:12:11;;;;;;;2.97;1.58;;;;;;;12.89;71.93;99941.03;5111708;28;20055;-58
2024/03/29 07:14:38;;;;;;;2.83;1.55;;;;;;;12.82;72.41;99939.78;5111518;28;20101;-55
2024/03/29 07:17:05;;;;;;;2.95;1.50;;;;;;;12.94;72.07;99954.94;5111332;28;20095;-57
2024/03/29 07:19:33;;;;;;;3.30;1.85;;;;;;;13.32;69.88;99957.47;5111502;28;20131;-58
2024/03/29 07:22:00;;;;;;;2.50;1.30;;;;;;;13.84;68.75;99955.25;5111410;28;20059;-58
2024/03/29 07:24:28;;;;;;;2.83;1.50;;;;;;;13.64;68.13;99975.56;5111127;28;20101;-56
2024/03/29 07:26:56;;;;;;;3.28;1.45;;;;;;;13.50;68.15;99979.28;5111541;28;20394;-58
2024/03/29 07:29:24;;;;;;;1.85;1.20;;;;;;;13.26;69.13;99973.13;5111268;28;20473;-58
2024/03/29 07:31:51;;;;;;;5.95;1.75;;;;;;;13.54;68.20;99972.72;5111067;28;20059;-60
2024/03/29 07:34:20;;;;;;;3.05;1.40;;;;;;;13.75;67.47;99980.94;5111277;28;20158;-58
2024/03/29 07:36:47;;;;;;;3.55;1.25;;;;;;;13.58;67.89;99992.09;5111045;28;20047;-61
2024/03/29 07:39:14;;;;;;;3.33;1.23;;;;;;;14.02;66.40;99996.72;5110898;28;20412;-61
2024/03/29 07:41:41;;;;;;;1.83;1.15;;;;;;;14.24;65.59;99993.19;5111247;28;20404;-59
2024/03/29 07:44:10;;;;;;;3.00;1.38;;;;;;;14.44;65.25;99988.91;5110820;28;20048;-58
2024/03/29 07:46:40;;;;;;;2.92;1.13;;;;;;;14.30;64.24;99990.00;5094129;28;20480;-59
2024/03/29 07:49:08;;;;;;;2.45;1.23;;;;;;;14.27;64.77;99990.25;5126518;27;20039;-59
2024/03/29 07:51:35;;;;;;;2.83;1.08;;;;;;;14.22;63.99;99976.34;5135881;27;20051;-59
2024/03/29 07:54:02;;;;;;;2.60;1.27;;;;;;;14.60;64.64;99986.72;5131171;27;20043;-60
2024/03/29 07:56:30;;;;;;;2.83;1.02;;;;;;;14.91;62.94;99978.84;5131384;27;20051;-59
2024/03/29 07:58:57;;;;;;;3.33;1.23;;;;;;;14.80;62.69;99983.28;5129657;27;20035;-58
2024/03/29 08:01:25;;;;;;;1.88;1.15;;;;;;;14.93;62.07;99984.94;5128850;27;20567;-59
2024/03/29 08:03:54;;;;;;;2.58;1.08;;;;;;;14.56;63.10;99986.09;5130930;27;20134;-58
2024/03/29 08:06:23;;;;;;;2.25;1.10;;;;;;;14.73;61.74;99984.75;5142880;27;20047;-60
2024/03/29 08:08:50;;;;;;;2.08;1.05;;;;;;;14.86;62.33;99990.84;5151487;27;20483;-58
2024/03/29 08:11:18;;;;;;;1.85;0.98;;;;;;;14.91;61.32;99998.50;5151498;27;20438;-59
2024/03/29 08:13:45;;;;;;;2.67;1.23;;;;;;;15.05;61.73;99991.97;5151528;27;20043;-59
2024/03/29 08:16:17;;;;;;;1.75;0.93;;;;;;;14.96;59.84;99990.94;5151299;27;20081;-60
2024/03/29 08:18:47;;;;;;;3.72;1.33;;;;;;;15.14;59.36;99994.75;5151372;27;20055;-60
2024/03/29 08:21:14;;;;;;;1.83;0.90;;;;;;;15.11;58.62;100002.22;5151787;27;20054;-59
2024/03/29 08:23:43;;;;;;;2.10;1.10;;;;;;;15.03;57.43;100000.16;5151527;27;20042;-63
2024/03/29 08:26:11;;;;;;;2.72;1.38;;;;;;;14.88;59.04;99991.56;5151705;27;20427;-60
2024/03/29 08:28:39;;;;;;;3.70;1.60;;;;;;;15.06;57.77;99994.56;5151495;27;20496;-58
2024/03/29 08:31:09;;;;;;;1.98;1.10;;;;;;;14.94;58.84;99989.31;5151240;27;20152;-59
2024/03/29 08:33:37;;;;;;;2.65;1.00;;;;;;;14.94;58.49;99983.94;5151028;27;20038;-59
2024/03/29 08:36:08;;;;;;;2.35;0.90;;;;;;;15.45;57.77;99981.44;5151221;27;20126;-59
2024/03/29 08:38:36;;;;;;;3.65;1.10;;;;;;;15.53;57.50;99970.88;5151270;27;20438;-58
2024/03/29 08:41:03;;;;;;;2.13;1.00;;;;;;;15.31;57.59;99969.16;5150535;27;20043;-59
2024/03/29 08:43:30;;;;;;;2.08;1.17;;;;;;;15.53;56.53;99980.78;5150875;27;20047;-60
2024/03/29 08:45:58;;;;;;;2.92;1.10;;;;;;;15.80;56.67;99962.31;5151181;27;20126;-56
2024/03/29 08:48:25;;;;;;;11.77;6.57;;;;;;;16.42;60.53;99961.34;5151329;27;20067;-60
2024/03/29 08:50:52;;;;;;;4.22;2.35;;;;;;;16.59;55.09;99955.28;5151145;27;20047;-60
2024/03/29 08:53:21;;;;;;;2.95;1.55;;;;;;;15.95;54.44;99961.00;5150998;27;20046;-58
2024/03/29 08:55:49;;;;;;;8.98;5.32;;;;;;;16.77;55.51;99962.72;5151000;27;20456;-59
2024/03/29 08:58:18;;;;;;;16.58;8.82;;;;;;;17.13;54.87;99964.78;5151620;27;20054;-60
2024/03/29 09:00:54;;;;;;;6.97;4.10;;;;;;;17.28;51.39;99954.44;5155362;27;20043;-59
2024/03/29 09:03:21;;;;;;;8.70;4.97;;;;;;;17.40;51.61;99968.59;5155260;27;20047;-57
2024/03/29 09:05:49;;;;;;;10.35;5.53;;;;;;;17.61;52.46;99957.66;5155528;27;20046;-60
2024/03/29 09:08:16;;;;;;;8.43;4.63;;;;;;;17.61;50.86;99963.91;5155003;27;20043;-62
2024/03/29 09:10:45;;;;;;;4.00;1.15;;;;;;;17.34;50.02;99961.94;5155006;27;20042;-58
2024/03/29 09:13:12;;;;;;;6.45;0.60;;;;;;;16.80;50.95;99957.09;5154957;27;20076;-59
2024/03/29 09:15:39;;;;;;;1.70;0.60;;;;;;;16.54;50.30;99944.09;5154995;27;20090;-59
2024/03/29 09:18:16;;;;;;;1.58;0.80;;;;;;;16.71;51.94;99948.00;5155179;27;20107;-57
2024/03/29 09:20:45;;;;;;;1.63;0.47;;;;;;;16.97;50.44;99942.91;5155379;27;20171;-58
2024/03/29 09:23:16;;;;;;;1.73;0.63;;;;;;;16.96;50.80;99952.00;5155105;27;20043;-61
2024/03/29 09:25:45;;;;;;;13.15;1.75;;;;;;;17.02;48.61;99939.81;5154995;27;20046;-60
2024/03/29 09:28:12;;;;;;;4.10;1.55;;;;;;;16.96;48.63;99949.28;5154599;27;20484;-59
2024/03/29 09:30:39;;;;;;;3.38;1.02;;;;;;;16.73;48.66;99950.53;5154815;27;20395;-59
2024/03/29 09:33:09;;;;;;;2.22;0.50;;;;;;;16.63;48.42;99949.66;5154769;27;20066;-61
2024/03/29 09:35:37;;;;;;;0.68;0.40;;;;;;;16.62;49.31;99956.03;5141185;27;20046;-60
2024/03/29 09:38:05;;;;;;;13.45;7.15;;;;;;;16.93;54.51;99941.50;5132176;27;20047;-60
2024/03/29 09:40:33;;;;;;;5.22;2.53;;;;;;;17.25;49.55;99945.75;5132784;27;20079;-59
2024/03/29 09:43:03;;;;;;;2.05;0.55;;;;;;;16.89;48.75;99942.78;5133033;27;20615;-60
2024/03/29 09:45:34;;;;;;;0.90;0.40;;;;;;;16.64;48.77;99944.13;5132061;27;20484;-59
2024/03/29 09:48:03;;;;;;;0.38;0.35;;;;;;;16.87;48.58;99939.34;5132729;27;20486;-62
2024/03/29 09:50:31;;;;;;;3.05;0.60;;;;;;;16.93;48.67;99935.25;5133015;27;20043;-60
2024/03/29 09:52:59;;;;;;;1.98;0.70;;;;;;;17.30;48.42;99922.78;5132337;27;20103;-62
2024/03/29 09:55:28;;;;;;;0.98;0.47;;;;;;;17.10;48.87;99919.25;5131214;27;20039;-59
2024/03/29 09:57:56;;;;;;;0.38;0.30;;;;;;;17.04;48.36;99927.88;5132779;27;20047;-60
2024/03/29 10:00:24;;;;;;;2.40;1.05;;;;;;;17.20;48.00;99926.50;5132568;27;20051;-61
2024/03/29 10:02:56;;;;;;;3.53;1.25;;;;;;;17.12;47.76;99911.88;5115941;27;20047;-61
2024/03/29 10:05:25;;;;;;;2.22;0.70;;;;;;;17.03;48.22;99909.19;5131501;27;20384;-60
2024/03/29 10:07:52;;;;;;;1.27;0.60;;;;;;;17.08;49.26;99907.78;5132427;27;20043;-59
2024/03/29 10:10:20;;;;;;;1.88;0.63;;;;;;;16.93;48.88;99909.16;5132594;27;20086;-62
2024/03/29 10:12:47;;;;;;;1.10;0.50;;;;;;;16.90;48.61;99914.84;5132262;27;20079;-61
2024/03/29 10:15:15;;;;;;;1.08;0.43;;;;;;;16.83;48.26;99902.94;5130597;27;20062;-62
2024/03/29 10:17:48;;;;;;;0.80;0.40;;;;;;;17.08;47.74;99891.59;5132274;27;20051;-62
2024/03/29 10:20:17;;;;;;;1.15;0.43;;;;;;;17.33;48.73;99892.84;5132335;27;20051;-62
2024/03/29 10:22:46;;;;;;;1.00;0.50;;;;;;;17.42;48.41;99893.81;5132168;27;20464;-61
2024/03/29 10:25:14;;;;;;;5.88;0.85;;;;;;;17.42;49.42;99893.81;5130864;27;20050;-61
2024/03/29 10:27:42;;;;;;;0.80;0.50;;;;;;;17.48;49.16;99890.56;5133011;27;20043;-61
2024/03/29 10:30:11;;;;;;;1.95;0.60;;;;;;;17.50;49.74;99896.66;5132950;27;20039;-62
2024/03/29 10:32:39;;;;;;;3.20;0.77;;;;;;;17.48;49.68;99893.25;5132047;27;20068;-61
2024/03/29 10:35:10;;;;;;;1.05;0.57;;;;;;;17.58;50.68;99877.91;5130783;27;20066;-63
2024/03/29 10:37:39;;;;;;;2.55;0.80;;;;;;;17.57;50.82;99887.00;5132034;27;20044;-63
2024/03/29 10:40:09;;;;;;;1.67;0.50;;;;;;;17.45;50.87;99878.19;5131296;27;20512;-61
2024/03/29 10:42:37;;;;;;;4.03;0.73;;;;;;;17.45;50.35;99871.94;5131983;27;20051;-61
2024/03/29 10:45:07;;;;;;;2.20;0.77;;;;;;;17.42;50.63;99873.09;5130079;27;20456;-61
2024/03/29 10:47:35;;;;;;;2.58;0.88;;;;;;;17.48;51.24;99881.63;5131470;27;20053;-62
2024/03/29 10:50:05;;;;;;;3.20;1.00;;;;;;;17.56;51.03;99871.78;5131696;27;20039;-59
2024/03/29 10:52:35;;;;;;;2.20;0.90;;;;;;;17.51;50.73;99867.84;5131073;27;20408;-60
2024/03/29 10:55:03;;;;;;;3.95;0.90;;;;;;;17.51;50.95;99866.00;5130517;27;20078;-61
2024/03/29 10:57:32;;;;;;;2.88;1.00;;;;;;;17.67;50.23;99860.84;5131367;27;20130;-61
2024/03/29 11:00:05;;;;;;;2.17;0.70;;;;;;;17.85;50.77;99857.38;5131125;27;20039;-60
2024/03/29 11:02:40;;;;;;;2.88;0.85;;;;;;;17.91;50.59;99843.31;5131600;27;20127;-61
2024/03/29 11:05:13;;;;;;;2.95;0.80;;;;;;;17.96;50.25;99833.78;5129826;27;20039;-61
2024/03/29 11:07:45;;;;;;;2.25;0.80;;;;;;;18.22;50.12;99833.03;5130925;27;20050;-61
2024/03/29 11:10:16;;;;;;;2.70;0.95;;;;;;;18.45;49.98;99828.09;5131475;27;20044;-61
2024/03/29 11:12:55;;;;;;;3.15;0.80;;;;;;;18.56;51.10;99819.75;5131514;27;20051;-62
2024/03/29 11:15:29;;;;;;;3.83;1.00;;;;;;;18.48;50.52;99806.16;5129765;27;20049;-61
2024/03/29 11:17:57;;;;;;;4.57;0.93;;;;;;;18.66;50.11;99808.91;5123892;27;20126;-60
2024/03/29 11:20:34;;;;;;;3.58;1.20;;;;;;;18.61;50.67;99806.63;5131635;27;20482;-59
2024/03/29 11:23:09;;;;;;;3.88;1.20;;;;;;;18.84;51.53;99802.50;5122103;27;20047;-62
2024/03/29 11:25:41;;;;;;;5.57;1.30;;;;;;;18.67;52.37;99795.25;5129928;27;20099;-59
2024/03/29 11:28:13;;;;;;;3.63;1.17;;;;;;;18.71;52.14;99796.63;5130064;27;20082;-61
2024/03/29 11:30:42;;;;;;;2.60;1.00;;;;;;;18.81;52.16;99783.88;5129207;27;20116;-60
2024/03/29 11:33:28;;;;;;;3.67;1.05;;;;;;;18.97;51.53;99785.00;5129367;27;20047;-59
2024/03/29 11:35:55;;;;;;;5.43;1.13;;;;;;;18.92;52.61;99782.81;5129037;27;20050;-61
2024/03/29 11:38:31;;;;;;;5.57;1.42;;;;;;;18.88;53.14;99787.66;5130323;27;20092;-60
2024/03/29 11:41:06;;;;;;;2.67;1.25;;;;;;;19.13;52.78;99779.75;5130347;27;20674;-59
2024/03/29 11:43:35;;;;;;;4.85;1.40;;;;;;;18.92;53.06;99773.84;5130417;27;20349;-59
2024/03/29 11:46:03;;;;;;;4.80;1.30;;;;;;;18.95;52.80;99773.53;5128959;27;20452;-63
2024/03/29 11:48:32;;;;;;;5.60;1.60;;;;;;;19.04;53.67;99780.69;5131291;27;20149;-62
2024/03/29 11:51:03;;;;;;;5.30;1.25;;;;;;;19.12;52.97;99773.50;5131186;27;20134;-63
2024/03/29 11:53:33;;;;;;;5.15;1.40;;;;;;;19.17;53.24;99768.44;5113596;27;20047;-63
2024/03/29 11:56:01;;;;;;;6.82;1.38;;;;;;;19.04;54.09;99761.75;5129637;27;20047;-64
2024/03/29 11:58:30;;;;;;;6.38;1.30;;;;;;;19.17;54.65;99762.19;5130644;27;20139;-63
2024/03/29 12:00:58;;;;;;;6.97;1.65;;;;;;;19.10;54.96;99770.06;5130181;27;20047;-62
2024/03/29 12:03:27;;;;;;;5.75;1.60;;;;;;;18.95;55.32;99770.81;5129992;27;20178;-62
2024/03/29 12:05:58;;;;;;;6.38;1.52;;;;;;;19.04;55.20;99764.47;5129016;27;20047;-61
2024/03/29 12:08:26;;;;;;;5.80;1.63;;;;;;;19.03;54.81;99774.44;5130016;27;20047;-62
2024/03/29 12:10:54;;;;;;;8.15;2.10;;;;;;;18.80;55.52;99767.81;5129658;27;20047;-62
2024/03/29 12:13:22;;;;;;;11.57;1.98;;;;;;;18.75;55.45;99762.91;5129879;27;20147;-62
2024/03/29 12:15:49;;;;;;;9.15;1.73;;;;;;;18.82;56.17;99761.28;5128255;27;20051;-62
2024/03/29 12:18:16;;;;;;;6.72;1.80;;;;;;;18.86;56.03;99754.53;5129477;27;20047;-63
2024/03/29 12:20:46;;;;;;;5.60;1.45;;;;;;;18.80;56.23;99752.44;5130048;27;20047;-63
2024/03/29 12:23:14;;;;;;;5.72;1.85;;;;;;;18.87;56.53;99753.53;5129335;27;20111;-62
2024/03/29 12:25:42;;;;;;;7.55;1.67;;;;;;;18.78;57.10;99751.78;5128250;27;20051;-63
2024/03/29 12:28:11;;;;;;;7.80;1.95;;;;;;;18.82;56.92;99736.97;5129842;27;20047;-62
2024/03/29 12:30:41;;;;;;;6.63;2.00;;;;;;;18.87;56.84;99742.72;5121084;27;20549;-61
2024/03/29 12:33:10;;;;;;;8.60;1.63;;;;;;;19.03;56.14;99741.16;5128728;27;20047;-61
2024/03/29 12:35:38;;;;;;;10.50;1.83;;;;;;;19.15;55.74;99746.13;5127771;27;20091;-60
2024/03/29 12:38:07;;;;;;;8.98;1.92;;;;;;;19.16;56.21;99733.47;5139767;27;20121;-62
2024/03/29 12:40:37;;;;;;;10.48;2.60;;;;;;;19.25;56.13;99737.06;5138201;27;20039;-62
2024/03/29 12:43:07;;;;;;;5.57;1.70;;;;;;;19.36;55.83;99723.25;5131627;27;20051;-63
2024/03/29 12:45:36;;;;;;;14.95;2.22;;;;;;;19.26;56.04;99727.94;5127991;27;20146;-63
2024/03/29 12:48:11;;;;;;;5.80;1.95;;;;;;;19.34;55.66;99733.41;5129172;27;20095;-62
2024/03/29 12:50:38;;;;;;;13.75;1.75;;;;;;;19.23;56.08;99726.41;5138081;27;20055;-62
2024/03/29 12:53:08;;;;;;;5.88;1.77;;;;;;;19.23;56.44;99721.00;5129507;28;20047;-62
2024/03/29 12:55:38;;;;;;;8.30;1.70;;;;;;;19.34;55.63;99717.16;5128418;28;20122;-63
2024/03/29 12:58:09;;;;;;;9.30;1.70;;;;;;;19.28;55.84;99724.06;5129421;27;20082;-62
2024/03/29 13:00:38;;;;;;;10.23;2.10;;;;;;;19.32;55.19;99714.63;5129302;28;20118;-61
2024/03/29 13:03:06;;;;;;;9.75;2.17;;;;;;;19.38;55.57;99711.25;5133815;27;20035;-61
2024/03/29 13:05:37;;;;;;;7.32;1.98;;;;;;;19.27;56.02;99719.66;5131782;27;20112;-62
2024/03/29 13:08:06;;;;;;;9.80;2.13;;;;;;;19.23;56.58;99710.19;5123861;27;20407;-61
2024/03/29 13:10:34;;;;;;;6.75;1.60;;;;;;;19.37;55.95;99709.56;5130294;27;20047;-61
2024/03/29 13:13:01;;;;;;;7.50;2.00;;;;;;;19.48;56.01;99715.69;5128881;27;20047;-62
2024/03/29 13:15:29;;;;;;;6.07;1.80;;;;;;;19.52;55.92;99703.56;5127550;28;20048;-62
2024/03/29 13:17:58;;;;;;;9.43;2.30;;;;;;;19.61;55.45;99702.63;5129247;28;20115;-64
2024/03/29 13:20:26;;;;;;;8.30;2.08;;;;;;;19.48;56.15;99699.47;5129110;28;20047;-61
2024/03/29 13:22:55;;;;;;;9.05;2.10;;;;;;;19.41;56.35;99685.78;5129139;28;20079;-63
2024/03/29 13:25:23;;;;;;;8.55;1.90;;;;;;;19.50;55.92;99690.22;5127717;28;20460;-62
2024/03/29 13:27:53;;;;;;;7.93;2.00;;;;;;;19.63;55.44;99689.78;5129175;28;20047;-61